createdAt,value
2018-09-28T00:01:50.339Z,6.67
2018-09-28T00:04:18.677Z,10.77
2018-09-28T00:06:46.991Z,6.60
2018-09-28T00:09:15.294Z,6.03
2018-09-28T00:11:43.596Z,9.53
2018-09-28T00:14:11.922Z,8.17
2018-09-28T00:16:40.237Z,8.37
2018-09-28T00:19:08.558Z,11.83
2018-09-28T00:21:36.840Z,6.90
2018-09-28T00:24:05.145Z,9.33
2018-09-28T00:26:33.445Z,13.23
2018-09-28T00:29:01.748Z,8.17
2018-09-28T00:31:30.041Z,8.50
2018-09-28T00:33:58.348Z,7.20
2018-09-28T00:36:26.658Z,8.87
2018-09-28T00:38:54.972Z,7.47
2018-09-28T00:41:23.265Z,7.07
2018-09-28T00:43:51.581Z,7.33
2018-09-28T00:46:19.872Z,7.47
2018-09-28T00:48:48.192Z,10.47
2018-09-28T00:51:16.492Z,8.00
2018-09-28T00:53:44.805Z,9.13
2018-09-28T00:56:13.096Z,10.03
2018-09-28T00:58:41.410Z,7.80
2018-09-28T01:01:09.697Z,7.77
2018-09-28T01:03:38.056Z,7.43
2018-09-28T01:06:06.341Z,8.80
2018-09-28T01:08:34.657Z,8.67
2018-09-28T01:11:02.969Z,7.77
2018-09-28T01:13:31.292Z,8.27
2018-09-28T01:15:59.578Z,7.43
2018-09-28T01:18:27.880Z,8.53
2018-09-28T01:20:56.197Z,7.57
2018-09-28T01:23:24.509Z,7.50
2018-09-28T01:25:52.800Z,7.97
2018-09-28T01:28:21.173Z,8.07
2018-09-28T01:30:49.777Z,9.30
2018-09-28T01:33:18.086Z,8.37
2018-09-28T01:35:46.405Z,8.10
2018-09-28T01:38:14.700Z,8.73
2018-09-28T01:40:43.022Z,8.40
2018-09-28T01:43:11.318Z,7.30
2018-09-28T01:45:39.664Z,10.27
2018-09-28T01:48:07.975Z,7.33
2018-09-28T01:50:36.294Z,9.90
2018-09-28T01:53:04.582Z,9.33
2018-09-28T01:55:32.896Z,9.97
2018-09-28T01:58:01.188Z,7.90
2018-09-28T02:00:29.514Z,9.37
2018-09-28T02:02:57.813Z,10.33
2018-09-28T02:05:26.169Z,9.60
2018-09-28T02:07:54.454Z,7.93
2018-09-28T02:10:22.760Z,8.83
2018-09-28T02:12:51.080Z,10.43
2018-09-28T02:15:19.421Z,8.83
2018-09-28T02:17:47.716Z,8.47
2018-09-28T02:20:16.024Z,8.40
2018-09-28T02:22:44.313Z,7.70
2018-09-28T02:25:13.073Z,9.23
2018-09-28T02:27:41.733Z,8.43
2018-09-28T02:30:10.062Z,8.80
2018-09-28T02:32:38.397Z,8.20
2018-09-28T02:35:06.772Z,7.60
2018-09-28T02:37:35.098Z,10.37
2018-09-28T02:40:03.496Z,9.70
2018-09-28T02:42:31.841Z,7.57
2018-09-28T02:45:00.134Z,12.23
2018-09-28T02:47:28.486Z,10.30
2018-09-28T02:49:56.793Z,10.13
2018-09-28T02:52:25.119Z,11.33
2018-09-28T02:54:53.408Z,8.60
2018-09-28T02:57:21.725Z,9.43
2018-09-28T02:59:50.045Z,9.57
2018-09-28T03:02:18.446Z,8.47
2018-09-28T03:04:46.769Z,10.43
2018-09-28T03:07:15.069Z,9.37
2018-09-28T03:09:43.393Z,8.63
2018-09-28T03:12:11.697Z,8.93
2018-09-28T03:14:40.022Z,9.13
2018-09-28T03:17:08.321Z,8.63
2018-09-28T03:19:36.658Z,12.70
2018-09-28T03:22:04.955Z,9.40
2018-09-28T03:24:33.301Z,14.13
2018-09-28T03:27:01.607Z,11.03
2018-09-28T03:29:29.924Z,10.37
2018-09-28T03:31:58.240Z,8.33
2018-09-28T03:34:26.590Z,8.40
2018-09-28T03:36:54.922Z,10.93
2018-09-28T03:39:23.226Z,10.30
2018-09-28T03:41:51.535Z,11.30
2018-09-28T03:44:19.816Z,9.90
2018-09-28T03:46:48.174Z,10.70
2018-09-28T03:49:16.465Z,9.87
2018-09-28T03:51:44.784Z,12.80
2018-09-28T03:54:13.082Z,10.03
2018-09-28T03:56:41.398Z,11.33
2018-09-28T03:59:09.712Z,11.30
2018-09-28T04:01:38.033Z,11.43
2018-09-28T04:04:06.324Z,11.40
2018-09-28T04:06:34.732Z,12.53
2018-09-28T04:09:04.626Z,9.37
2018-09-28T04:11:32.928Z,10.93
2018-09-28T04:14:01.219Z,8.63
2018-09-28T04:16:29.520Z,10.33
2018-09-28T04:18:57.821Z,10.47
2018-09-28T04:21:26.138Z,13.27
2018-09-28T04:23:54.437Z,11.53
2018-09-28T04:26:22.778Z,10.87
2018-09-28T04:28:51.069Z,9.93
2018-09-28T04:31:19.389Z,12.60
2018-09-28T04:33:47.720Z,11.83
2018-09-28T04:36:16.062Z,10.17
2018-09-28T04:38:44.380Z,10.47
2018-09-28T04:41:19.501Z,10.13
2018-09-28T04:43:47.802Z,11.17
2018-09-28T04:46:16.292Z,10.77
2018-09-28T04:48:44.591Z,11.13
2018-09-28T04:51:12.879Z,11.20
2018-09-28T04:53:41.188Z,15.20
2018-09-28T04:56:09.480Z,11.53
2018-09-28T04:58:37.805Z,15.57
2018-09-28T05:01:06.130Z,11.80
2018-09-28T05:03:34.450Z,12.40
2018-09-28T05:06:03.454Z,13.33
2018-09-28T05:08:33.127Z,13.73
2018-09-28T05:11:01.468Z,11.60
2018-09-28T05:13:31.219Z,13.50
2018-09-28T05:16:00.225Z,15.37
2018-09-28T05:18:29.152Z,12.27
2018-09-28T05:20:58.257Z,17.83
2018-09-28T05:23:27.389Z,11.97
2018-09-28T05:25:56.185Z,13.07
2018-09-28T05:28:25.184Z,15.90
2018-09-28T05:30:54.550Z,13.80
2018-09-28T05:33:23.325Z,11.93
2018-09-28T05:35:52.181Z,11.50
2018-09-28T05:38:22.474Z,14.10
2018-09-28T05:40:51.460Z,12.10
2018-09-28T05:43:20.121Z,16.73
2018-09-28T05:45:49.107Z,13.63
2018-09-28T05:48:19.114Z,16.47
2018-09-28T05:50:47.612Z,13.10
2018-09-28T05:53:16.485Z,13.73
2018-09-28T05:55:44.792Z,14.93
2018-09-28T05:58:18.433Z,15.30
2018-09-28T06:00:52.128Z,15.37
2018-09-28T06:03:21.418Z,16.13
2018-09-28T06:05:54.986Z,14.27
2018-09-28T06:08:23.301Z,12.77
2018-09-28T06:10:51.601Z,13.80
2018-09-28T06:13:21.128Z,13.90
2018-09-28T06:15:49.437Z,13.67
2018-09-28T06:18:17.769Z,14.60
2018-09-28T06:20:46.361Z,12.80
2018-09-28T06:23:14.697Z,13.57
2018-09-28T06:25:43.093Z,15.47
2018-09-28T06:28:11.404Z,16.40
2018-09-28T06:30:39.706Z,14.67
2018-09-28T06:33:08.056Z,14.53
2018-09-28T06:35:36.422Z,14.30
2018-09-28T06:38:04.745Z,16.67
2018-09-28T06:40:33.044Z,15.27
2018-09-28T06:43:01.430Z,13.73
2018-09-28T06:45:29.736Z,15.87
2018-09-28T06:47:58.120Z,12.57
2018-09-28T06:50:26.368Z,11.47
2018-09-28T06:52:54.713Z,12.50
2018-09-28T06:55:23.022Z,13.23
2018-09-28T06:57:51.349Z,4.80
2018-09-28T07:00:19.680Z,7.20
2018-09-28T07:02:48.072Z,11.03
2018-09-28T07:05:16.453Z,13.43
2018-09-28T07:07:44.749Z,14.33
2018-09-28T07:10:13.086Z,13.33
2018-09-28T07:12:41.422Z,15.37
2018-09-28T07:15:09.740Z,12.40
2018-09-28T07:17:38.042Z,12.60
2018-09-28T07:20:06.388Z,14.17
2018-09-28T07:22:34.692Z,13.00
2018-09-28T07:25:03.078Z,12.40
2018-09-28T07:27:31.320Z,11.47
2018-09-28T07:29:59.667Z,11.87
2018-09-28T07:32:27.948Z,12.60
2018-09-28T07:34:56.487Z,15.13
2018-09-28T07:37:24.802Z,12.20
2018-09-28T07:39:53.165Z,13.30
2018-09-28T07:42:21.744Z,18.13
2018-09-28T07:44:50.060Z,18.87
2018-09-28T07:47:18.399Z,15.40
2018-09-28T07:49:46.718Z,16.40
2018-09-28T07:52:15.030Z,15.33
2018-09-28T07:54:43.377Z,13.13
2018-09-28T07:57:11.693Z,17.80
2018-09-28T07:59:40.113Z,13.30
2018-09-28T08:02:08.634Z,12.07
2018-09-28T08:04:36.961Z,14.73
2018-09-28T08:07:05.278Z,15.57
2018-09-28T08:09:33.605Z,14.00
2018-09-28T08:12:01.905Z,14.80
2018-09-28T08:14:30.249Z,11.67
2018-09-28T08:16:58.552Z,13.63
2018-09-28T08:19:26.893Z,11.10
2018-09-28T08:21:55.201Z,16.97
2018-09-28T08:24:23.537Z,16.70
2018-09-28T08:26:51.913Z,18.73
2018-09-28T08:29:20.170Z,16.77
2018-09-28T08:31:48.493Z,18.63
2018-09-28T08:34:16.813Z,17.53
2018-09-28T08:36:45.141Z,14.13
2018-09-28T08:39:13.597Z,22.27
2018-09-28T08:41:41.930Z,15.60
2018-09-28T08:44:10.244Z,15.53
2018-09-28T08:46:38.589Z,12.47
2018-09-28T08:49:06.965Z,19.50
2018-09-28T08:51:35.248Z,13.60
2018-09-28T08:54:03.589Z,17.30
2018-09-28T08:56:31.914Z,16.13
2018-09-28T08:59:00.220Z,16.70
2018-09-28T09:01:28.552Z,17.50
2018-09-28T09:03:56.853Z,19.10
2018-09-28T09:06:25.176Z,16.77
2018-09-28T09:08:53.510Z,16.70
2018-09-28T09:11:21.841Z,22.77
2018-09-28T09:13:50.223Z,29.90
2018-09-28T09:16:18.557Z,38.20
2018-09-28T09:18:47.537Z,35.43
2018-09-28T09:21:15.967Z,43.00
2018-09-28T09:23:44.303Z,44.63
2018-09-28T09:26:12.666Z,48.90
2018-09-28T09:28:41.149Z,38.90
2018-09-28T09:31:09.480Z,47.73
2018-09-28T09:33:37.793Z,36.43
2018-09-28T09:36:06.356Z,30.57
2018-09-28T09:38:34.655Z,23.70
2018-09-28T09:41:02.985Z,23.53
2018-09-28T09:43:31.300Z,26.83
2018-09-28T09:45:59.625Z,23.80
2018-09-28T09:48:27.942Z,26.03
2018-09-28T09:50:56.270Z,25.50
2018-09-28T09:53:24.578Z,26.23
2018-09-28T09:55:52.948Z,24.93
2018-09-28T09:58:21.248Z,21.23
2018-09-28T10:00:55.022Z,22.50
2018-09-28T10:03:28.811Z,25.40
2018-09-28T10:05:57.153Z,23.17
2018-09-28T10:08:25.558Z,21.43
2018-09-28T10:10:53.922Z,28.10
2018-09-28T10:13:22.262Z,21.90
2018-09-28T10:15:50.664Z,26.23
2018-09-28T10:18:18.990Z,18.03
2018-09-28T10:20:47.362Z,18.90
2018-09-28T10:23:15.696Z,18.43
2018-09-28T10:25:44.062Z,18.77
2018-09-28T10:28:12.467Z,26.37
2018-09-28T10:30:40.884Z,17.50
2018-09-28T10:33:09.198Z,20.53
2018-09-28T10:35:37.552Z,18.60
2018-09-28T10:38:06.193Z,19.87
2018-09-28T10:40:34.743Z,17.30
2018-09-28T10:43:02.914Z,21.17
2018-09-28T10:45:31.262Z,20.27
2018-09-28T10:47:59.547Z,17.47
2018-09-28T10:50:27.851Z,14.67
2018-09-28T10:52:56.464Z,15.10
2018-09-28T10:55:24.593Z,14.20
2018-09-28T10:57:52.933Z,14.13
2018-09-28T11:00:21.258Z,22.53
2018-09-28T11:02:49.607Z,15.57
2018-09-28T11:05:17.941Z,17.83
2018-09-28T11:07:46.262Z,19.77
2018-09-28T11:10:14.616Z,18.30
2018-09-28T11:12:42.957Z,17.67
2018-09-28T11:15:11.277Z,15.50
2018-09-28T11:17:39.613Z,12.47
2018-09-28T11:20:08.413Z,14.90
2018-09-28T11:22:36.841Z,14.40
2018-09-28T11:25:05.237Z,15.40
2018-09-28T11:27:33.590Z,13.47
2018-09-28T11:30:01.916Z,9.77
2018-09-28T11:32:30.241Z,12.10
2018-09-28T11:34:58.536Z,12.60
2018-09-28T11:37:26.848Z,11.03
2018-09-28T11:39:55.356Z,8.73
2018-09-28T11:42:23.755Z,8.17
2018-09-28T11:44:52.106Z,9.83
2018-09-28T11:47:20.482Z,9.40
2018-09-28T11:49:48.846Z,10.53
2018-09-28T11:52:17.248Z,9.67
2018-09-28T11:54:45.657Z,8.07
2018-09-28T11:57:14.081Z,8.23
2018-09-28T11:59:42.463Z,6.20
2018-09-28T12:02:10.841Z,6.63
2018-09-28T12:04:39.233Z,6.13
2018-09-28T12:07:07.687Z,6.43
2018-09-28T12:09:39.043Z,8.07
2018-09-28T12:12:07.412Z,6.17
2018-09-28T12:14:35.757Z,7.40
2018-09-28T12:17:04.127Z,6.37
2018-09-28T12:19:32.535Z,5.93
2018-09-28T12:22:00.938Z,5.60
2018-09-28T12:24:29.336Z,10.33
2018-09-28T12:26:57.785Z,11.20
2018-09-28T12:29:26.113Z,7.67
2018-09-28T12:31:54.446Z,6.77
2018-09-28T12:34:22.815Z,10.50
2018-09-28T12:36:51.204Z,5.97
2018-09-28T12:39:19.742Z,8.63
2018-09-28T12:41:48.111Z,7.30
2018-09-28T12:44:16.523Z,8.00
2018-09-28T12:46:44.787Z,7.83
2018-09-28T12:49:13.122Z,6.67
2018-09-28T12:51:41.435Z,10.30
2018-09-28T12:54:09.972Z,7.03
2018-09-28T12:56:38.309Z,6.47
2018-09-28T12:59:06.729Z,8.07
2018-09-28T13:01:35.071Z,6.10
2018-09-28T13:04:03.454Z,8.57
2018-09-28T13:06:31.792Z,7.83
2018-09-28T13:09:00.182Z,7.90
2018-09-28T13:11:28.500Z,4.63
2018-09-28T13:13:56.832Z,5.20
2018-09-28T13:16:25.129Z,5.57
2018-09-28T13:18:53.482Z,4.77
2018-09-28T13:21:21.776Z,3.97
2018-09-28T13:23:50.110Z,3.87
2018-09-28T13:26:18.427Z,6.03
2018-09-28T13:28:46.796Z,7.37
2018-09-28T13:31:15.105Z,3.13
2018-09-28T13:33:43.457Z,4.77
2018-09-28T13:36:18.262Z,3.97
2018-09-28T13:38:46.657Z,3.30
2018-09-28T13:41:14.940Z,6.07
2018-09-28T13:43:44.161Z,3.93
2018-09-28T13:46:12.584Z,5.73
2018-09-28T13:48:40.931Z,5.70
2018-09-28T13:51:09.287Z,6.20
2018-09-28T13:53:37.628Z,5.47
2018-09-28T13:56:05.991Z,8.13
2018-09-28T13:58:34.355Z,6.20
2018-09-28T14:01:02.758Z,6.10
2018-09-28T14:03:31.173Z,9.03
2018-09-28T14:05:59.476Z,4.90
2018-09-28T14:08:27.931Z,5.13
2018-09-28T14:10:56.193Z,4.87
2018-09-28T14:13:24.837Z,4.50
2018-09-28T14:15:53.141Z,7.27
2018-09-28T14:18:21.486Z,6.20
2018-09-28T14:20:49.909Z,6.17
2018-09-28T14:23:18.097Z,5.10
2018-09-28T14:25:46.426Z,6.53
2018-09-28T14:28:14.734Z,4.90
2018-09-28T14:30:43.133Z,6.63
2018-09-28T14:33:11.490Z,6.20
2018-09-28T14:35:39.840Z,5.47
2018-09-28T14:38:08.298Z,8.57
2018-09-28T14:40:36.622Z,7.20
2018-09-28T14:43:04.881Z,8.27
2018-09-28T14:45:33.189Z,7.47
2018-09-28T14:48:01.482Z,11.63
2018-09-28T14:50:29.820Z,7.90
2018-09-28T14:52:58.105Z,12.23
2018-09-28T14:55:26.421Z,5.67
2018-09-28T14:57:54.719Z,7.67
2018-09-28T15:00:23.190Z,15.73
2018-09-28T15:02:51.472Z,7.80
2018-09-28T15:05:19.755Z,7.57
2018-09-28T15:07:48.192Z,10.43
2018-09-28T15:10:16.460Z,7.23
2018-09-28T15:12:44.809Z,6.93
2018-09-28T15:15:13.095Z,15.73
2018-09-28T15:17:41.395Z,9.03
2018-09-28T15:20:09.932Z,11.73
2018-09-28T15:22:38.275Z,9.57
2018-09-28T15:25:06.664Z,10.30
2018-09-28T15:27:34.965Z,7.03
2018-09-28T15:30:03.303Z,11.00
2018-09-28T15:32:31.669Z,11.93
2018-09-28T15:35:00.090Z,10.57
2018-09-28T15:37:28.507Z,8.63
2018-09-28T15:39:56.830Z,14.87
2018-09-28T15:42:25.129Z,13.37
2018-09-28T15:44:53.462Z,11.40
2018-09-28T15:47:21.820Z,10.23
2018-09-28T15:49:50.148Z,11.60
2018-09-28T15:52:18.540Z,12.93
2018-09-28T15:54:46.863Z,12.17
2018-09-28T15:57:15.195Z,14.40
2018-09-28T15:59:43.518Z,13.50
2018-09-28T16:02:11.824Z,14.47
2018-09-28T16:04:40.153Z,13.20
2018-09-28T16:07:08.557Z,20.10
2018-09-28T16:09:36.898Z,16.77
2018-09-28T16:12:05.265Z,17.67
2018-09-28T16:14:33.724Z,20.13
2018-09-28T16:17:02.137Z,16.87
2018-09-28T16:19:30.509Z,20.13
2018-09-28T16:21:58.861Z,18.47
2018-09-28T16:24:27.194Z,22.63
2018-09-28T16:26:55.526Z,23.50
2018-09-28T16:29:23.845Z,22.37
2018-09-28T16:31:52.188Z,23.30
2018-09-28T16:34:20.936Z,28.33
2018-09-28T16:36:49.269Z,29.60
2018-09-28T16:39:17.607Z,26.57
2018-09-28T16:41:45.958Z,24.23
2018-09-28T16:44:14.269Z,28.00
2018-09-28T16:46:42.596Z,25.63
2018-09-28T16:49:10.905Z,25.37
2018-09-28T16:51:39.276Z,28.57
2018-09-28T16:54:07.598Z,27.03
2018-09-28T16:56:35.944Z,28.93
2018-09-28T16:59:04.264Z,27.20
2018-09-28T17:01:32.607Z,31.73
2018-09-28T17:04:00.917Z,28.63
2018-09-28T17:06:29.252Z,27.47
2018-09-28T17:08:57.589Z,26.00
2018-09-28T17:11:25.932Z,27.73
2018-09-28T17:13:54.240Z,32.13
2018-09-28T17:16:22.565Z,32.07
2018-09-28T17:18:50.885Z,30.70
2018-09-28T17:21:19.213Z,31.47
2018-09-28T17:23:47.526Z,28.80
2018-09-28T17:26:15.860Z,23.37
2018-09-28T17:28:44.243Z,22.53
2018-09-28T17:31:12.541Z,19.20
2018-09-28T17:33:40.866Z,18.67
2018-09-28T17:36:09.266Z,12.97
2018-09-28T17:38:37.583Z,12.23
2018-09-28T17:41:05.943Z,10.10
2018-09-28T17:43:34.294Z,10.03
2018-09-28T17:46:02.609Z,8.00
2018-09-28T17:48:30.925Z,8.87
2018-09-28T17:50:59.237Z,17.80
2018-09-28T17:53:27.569Z,8.23
2018-09-28T17:55:55.869Z,7.90
2018-09-28T17:58:24.184Z,7.33
2018-09-28T18:00:52.498Z,7.83
2018-09-28T18:03:20.816Z,6.87
2018-09-28T18:05:49.153Z,7.00
2018-09-28T18:08:17.543Z,4.60
2018-09-28T18:10:45.844Z,6.23
2018-09-28T18:13:14.157Z,4.77
2018-09-28T18:15:42.470Z,5.07
2018-09-28T18:18:10.784Z,5.70
2018-09-28T18:20:39.114Z,5.07
2018-09-28T18:23:07.477Z,5.93
2018-09-28T18:25:35.777Z,5.60
2018-09-28T18:28:04.096Z,6.23
2018-09-28T18:30:32.410Z,5.23
2018-09-28T18:33:00.729Z,7.00
2018-09-28T18:35:29.025Z,6.50
2018-09-28T18:37:57.387Z,7.87
2018-09-28T18:40:25.684Z,6.83
2018-09-28T18:42:54.033Z,8.13
2018-09-28T18:45:22.396Z,8.40
2018-09-28T18:47:50.741Z,5.67
2018-09-28T18:50:19.041Z,4.83
2018-09-28T18:52:47.382Z,6.57
2018-09-28T18:55:15.690Z,6.87
2018-09-28T18:57:44.025Z,6.33
2018-09-28T19:00:12.341Z,5.80
2018-09-28T19:02:40.688Z,10.50
2018-09-28T19:05:09.241Z,7.23
2018-09-28T19:07:37.673Z,3.90
2018-09-28T19:10:06.036Z,7.97
2018-09-28T19:12:34.405Z,9.13
2018-09-28T19:15:02.750Z,5.83
2018-09-28T19:17:31.048Z,5.23
2018-09-28T19:19:59.508Z,10.60
2018-09-28T19:22:27.813Z,6.37
2018-09-28T19:24:56.142Z,8.80
2018-09-28T19:27:24.446Z,9.63
2018-09-28T19:29:52.761Z,3.83
2018-09-28T19:32:21.298Z,12.43
2018-09-28T19:34:49.661Z,5.30
2018-09-28T19:37:17.971Z,11.63
2018-09-28T19:39:46.285Z,5.37
2018-09-28T19:42:14.574Z,7.50
2018-09-28T19:44:42.889Z,6.53
2018-09-28T19:47:11.196Z,9.70
2018-09-28T19:49:39.517Z,6.97
2018-09-28T19:52:07.824Z,8.03
2018-09-28T19:54:36.150Z,6.73
2018-09-28T19:57:04.483Z,6.03
2018-09-28T19:59:32.840Z,10.97
2018-09-28T20:02:01.137Z,7.37
2018-09-28T20:04:29.463Z,8.43
2018-09-28T20:06:57.759Z,7.30
2018-09-28T20:09:26.093Z,6.10
2018-09-28T20:11:54.422Z,11.03
2018-09-28T20:14:22.741Z,8.73
2018-09-28T20:16:51.049Z,6.20
2018-09-28T20:19:19.382Z,7.87
2018-09-28T20:21:47.693Z,7.27
2018-09-28T20:24:16.007Z,9.53
2018-09-28T20:26:44.335Z,7.47
2018-09-28T20:29:12.667Z,8.97
2018-09-28T20:31:40.967Z,4.43
2018-09-28T20:34:09.289Z,9.73
2018-09-28T20:36:37.590Z,8.00
2018-09-28T20:39:09.161Z,9.53
2018-09-28T20:41:37.536Z,11.20
2018-09-28T20:44:05.874Z,7.87
2018-09-28T20:46:34.204Z,7.50
2018-09-28T20:49:02.589Z,9.33
2018-09-28T20:51:30.848Z,11.67
2018-09-28T20:53:59.741Z,10.23
2018-09-28T20:56:28.032Z,11.23
2018-09-28T20:58:56.328Z,9.53
2018-09-28T21:01:24.665Z,8.03
2018-09-28T21:03:53.138Z,9.93
2018-09-28T21:06:21.650Z,6.93
2018-09-28T21:08:49.988Z,9.73
2018-09-28T21:11:18.313Z,10.03
2018-09-28T21:13:46.636Z,5.63
2018-09-28T21:16:14.948Z,6.43
2018-09-28T21:18:43.373Z,10.23
2018-09-28T21:21:11.694Z,7.00
2018-09-28T21:23:40.057Z,8.27
2018-09-28T21:26:08.346Z,5.47
2018-09-28T21:28:36.649Z,5.57
2018-09-28T21:31:04.961Z,9.57
2018-09-28T21:33:33.263Z,6.13
2018-09-28T21:36:01.572Z,9.10
2018-09-28T21:38:29.874Z,9.67
2018-09-28T21:40:58.193Z,9.93
2018-09-28T21:43:26.492Z,7.53
2018-09-28T21:45:54.839Z,11.13
2018-09-28T21:48:23.120Z,7.83
2018-09-28T21:50:51.440Z,13.07
2018-09-28T21:53:19.728Z,6.77
2018-09-28T21:55:48.053Z,9.37
2018-09-28T21:58:16.365Z,11.57
2018-09-28T22:00:44.726Z,9.80
2018-09-28T22:03:13.025Z,6.30
2018-09-28T22:05:41.345Z,6.53
2018-09-28T22:08:09.661Z,10.43
2018-09-28T22:10:37.994Z,9.73
2018-09-28T22:13:06.281Z,6.23
2018-09-28T22:15:34.593Z,8.40
2018-09-28T22:18:02.893Z,5.53
2018-09-28T22:20:31.213Z,10.70
2018-09-28T22:22:59.609Z,10.57
2018-09-28T22:25:27.929Z,8.20
2018-09-28T22:27:56.221Z,10.73
2018-09-28T22:30:24.538Z,6.97
2018-09-28T22:32:52.862Z,7.03
2018-09-28T22:35:21.233Z,9.57
2018-09-28T22:37:49.556Z,7.30
2018-09-28T22:40:17.845Z,7.60
2018-09-28T22:42:46.168Z,8.37
2018-09-28T22:45:14.489Z,8.03
2018-09-28T22:47:42.808Z,7.67
2018-09-28T22:50:11.132Z,8.13
2018-09-28T22:52:39.460Z,7.80
2018-09-28T22:55:07.893Z,8.60
2018-09-28T22:57:36.496Z,8.13
2018-09-28T23:00:04.985Z,7.17
2018-09-28T23:02:33.297Z,10.70
2018-09-28T23:05:01.588Z,7.70
2018-09-28T23:07:29.920Z,11.47
2018-09-28T23:09:58.222Z,10.33
2018-09-28T23:12:26.537Z,8.03
2018-09-28T23:14:54.831Z,11.27
2018-09-28T23:17:23.141Z,9.87
2018-09-28T23:19:51.429Z,7.03
2018-09-28T23:22:19.746Z,11.30
2018-09-28T23:24:48.127Z,13.70
2018-09-28T23:27:16.453Z,10.97
2018-09-28T23:29:44.746Z,7.33
2018-09-28T23:32:13.061Z,9.07
2018-09-28T23:34:41.354Z,8.33
2018-09-28T23:37:09.665Z,6.53
2018-09-28T23:39:37.951Z,8.03
2018-09-28T23:42:06.413Z,6.13
2018-09-28T23:44:34.701Z,4.73
2018-09-28T23:47:03.012Z,7.70
2018-09-28T23:49:31.310Z,11.50
2018-09-28T23:51:59.620Z,6.63
2018-09-28T23:54:27.921Z,10.73
2018-09-28T23:56:56.238Z,11.17
2018-09-28T23:59:24.542Z,6.03
